createdAt,value
2022-09-06T00:00:40.034Z,19.80
2022-09-06T00:03:36.510Z,19.80
2022-09-06T00:06:23.846Z,19.80
2022-09-06T00:09:17.490Z,19.80
2022-09-06T00:12:11.487Z,19.80
2022-09-06T00:15:06.691Z,19.90
2022-09-06T00:18:07.477Z,19.90
2022-09-06T00:21:01.494Z,19.90
2022-09-06T00:23:55.552Z,19.90
2022-09-06T00:26:42.657Z,19.90
2022-09-06T00:29:36.532Z,20.00
2022-09-06T00:32:30.515Z,20.00
2022-09-06T00:35:18.747Z,20.00
2022-09-06T00:38:12.530Z,19.90
2022-09-06T00:40:59.974Z,19.90
2022-09-06T00:43:53.546Z,19.90
2022-09-06T00:46:51.570Z,19.80
2022-09-06T00:49:50.537Z,19.70
2022-09-06T00:52:39.099Z,19.60
2022-09-06T00:55:32.559Z,19.60
2022-09-06T00:58:26.656Z,19.50
2022-09-06T01:01:14.031Z,19.50
2022-09-06T01:04:09.570Z,19.50
2022-09-06T01:07:17.567Z,19.40
2022-09-06T01:10:25.807Z,19.40
2022-09-06T01:13:50.627Z,19.40
2022-09-06T01:16:44.605Z,19.40
2022-09-06T01:20:03.792Z,19.50
2022-09-06T01:23:25.589Z,19.40
2022-09-06T01:26:40.603Z,19.40
2022-09-06T01:29:40.591Z,19.40
2022-09-06T01:32:34.981Z,19.40
2022-09-06T01:35:46.603Z,19.40
2022-09-06T01:38:34.172Z,19.40
2022-09-06T01:41:27.676Z,19.40
2022-09-06T01:44:22.030Z,19.40
2022-09-06T01:47:28.639Z,19.40
2022-09-06T01:50:47.873Z,19.40
2022-09-06T01:54:02.686Z,19.30
2022-09-06T01:57:01.686Z,19.30
2022-09-06T02:00:09.214Z,19.20
2022-09-06T02:03:29.760Z,19.10
2022-09-06T02:06:29.055Z,19.10
2022-09-06T02:09:30.698Z,19.10
2022-09-06T02:12:26.675Z,19.00
2022-09-06T02:15:34.708Z,19.00
2022-09-06T02:18:27.350Z,19.00
2022-09-06T02:21:23.751Z,19.00
2022-09-06T02:24:25.682Z,19.00
2022-09-06T02:27:14.555Z,19.00
2022-09-06T02:30:09.735Z,18.90
2022-09-06T02:33:08.723Z,19.00
2022-09-06T02:36:02.712Z,19.00
2022-09-06T02:38:56.716Z,19.00
2022-09-06T02:41:52.719Z,19.00
2022-09-06T02:44:40.324Z,19.00
2022-09-06T02:47:33.715Z,19.00
2022-09-06T02:50:27.724Z,18.90
2022-09-06T02:53:22.727Z,19.00
2022-09-06T02:56:16.762Z,19.00
2022-09-06T02:59:07.496Z,19.00
2022-09-06T03:02:00.827Z,19.00
2022-09-06T03:04:54.804Z,18.90
2022-09-06T03:07:48.772Z,19.00
2022-09-06T03:10:42.817Z,18.90
2022-09-06T03:13:36.821Z,18.90
2022-09-06T03:16:24.035Z,18.90
2022-09-06T03:19:17.817Z,18.90
2022-09-06T03:22:04.937Z,18.90
2022-09-06T03:24:58.784Z,18.90
2022-09-06T03:27:46.234Z,18.90
2022-09-06T03:30:39.908Z,19.00
2022-09-06T03:33:33.821Z,19.00
2022-09-06T03:36:27.848Z,19.00
2022-09-06T03:39:15.048Z,19.00
2022-09-06T03:42:08.782Z,19.00
2022-09-06T03:45:02.858Z,19.00
2022-09-06T03:47:50.083Z,18.90
2022-09-06T03:50:43.841Z,18.90
2022-09-06T03:53:37.821Z,18.90
2022-09-06T03:56:31.880Z,18.90
2022-09-06T03:59:25.883Z,18.90
2022-09-06T04:02:13.071Z,18.90
2022-09-06T04:05:06.851Z,18.80
2022-09-06T04:07:53.894Z,18.80
2022-09-06T04:10:47.860Z,18.70
2022-09-06T04:13:35.191Z,18.70
2022-09-06T04:16:28.896Z,18.70
2022-09-06T04:19:22.859Z,18.60
2022-09-06T04:22:16.902Z,18.50
2022-09-06T04:25:10.866Z,18.50
2022-09-06T04:28:04.922Z,18.50
2022-09-06T04:30:54.139Z,18.50
2022-09-06T04:33:48.925Z,18.50
2022-09-06T04:36:46.491Z,18.40
2022-09-06T04:39:35.463Z,18.40
2022-09-06T04:42:28.973Z,18.40
2022-09-06T04:45:16.079Z,18.40
2022-09-06T04:48:09.902Z,18.40
2022-09-06T04:50:57.002Z,18.40
2022-09-06T04:53:50.914Z,18.40
2022-09-06T04:56:38.032Z,18.30
2022-09-06T04:59:31.934Z,18.40
2022-09-06T05:02:26.048Z,18.30
2022-09-06T05:05:13.291Z,18.20
2022-09-06T05:08:06.975Z,18.20
2022-09-06T05:10:54.039Z,18.20
2022-09-06T05:13:48.938Z,18.10
2022-09-06T05:16:36.103Z,18.20
2022-09-06T05:19:29.960Z,18.10
2022-09-06T05:22:23.957Z,18.20
2022-09-06T05:25:11.458Z,18.30
2022-09-06T05:28:11.980Z,18.30
2022-09-06T05:31:32.028Z,18.30
2022-09-06T05:34:19.209Z,18.40
2022-09-06T05:37:12.982Z,18.40
2022-09-06T05:40:01.768Z,18.40
2022-09-06T05:42:55.001Z,18.40
2022-09-06T05:45:42.123Z,18.40
2022-09-06T05:48:37.186Z,18.40
2022-09-06T05:51:24.525Z,18.40
2022-09-06T05:54:18.021Z,18.40
2022-09-06T05:57:12.036Z,18.40
2022-09-06T06:00:06.053Z,18.40
2022-09-06T06:02:53.193Z,18.50
2022-09-06T06:05:47.014Z,18.50
2022-09-06T06:08:47.032Z,18.50
2022-09-06T06:11:41.038Z,18.50
2022-09-06T06:14:35.095Z,18.50
2022-09-06T06:17:22.228Z,18.60
2022-09-06T06:20:16.078Z,18.60
2022-09-06T06:23:03.177Z,18.60
2022-09-06T06:25:57.080Z,18.60
2022-09-06T06:28:44.360Z,18.70
2022-09-06T06:31:40.171Z,18.60
2022-09-06T06:34:27.342Z,18.70
2022-09-06T06:37:21.058Z,18.70
2022-09-06T06:40:09.046Z,18.80
2022-09-06T06:43:03.127Z,18.70
2022-09-06T06:45:50.652Z,18.80
2022-09-06T06:48:50.387Z,18.80
2022-09-06T06:51:39.934Z,18.80
2022-09-06T06:54:34.188Z,18.90
2022-09-06T06:57:21.312Z,18.90
2022-09-06T07:00:16.144Z,18.90
2022-09-06T07:03:03.431Z,18.90
2022-09-06T07:06:13.095Z,18.90
2022-09-06T07:09:07.138Z,19.00
2022-09-06T07:11:54.250Z,19.00
2022-09-06T07:14:48.158Z,19.00
2022-09-06T07:17:35.653Z,19.00
2022-09-06T07:20:30.235Z,19.10
2022-09-06T07:26:34.263Z,19.10
2022-09-06T07:29:21.696Z,19.10
2022-09-06T07:32:15.190Z,19.20
2022-09-06T07:35:09.221Z,19.20
2022-09-06T07:38:04.191Z,19.20
2022-09-06T07:40:56.021Z,19.30
2022-09-06T07:43:50.177Z,19.30
2022-09-06T07:46:44.353Z,19.40
2022-09-06T07:49:34.777Z,19.40
2022-09-06T07:55:47.199Z,19.50
2022-09-06T07:58:41.258Z,19.70
2022-09-06T08:01:32.489Z,19.70
2022-09-06T08:04:26.255Z,19.70
2022-09-06T08:10:28.254Z,19.80
2022-09-06T08:13:15.433Z,19.90
2022-09-06T08:16:11.328Z,20.00
2022-09-06T08:19:00.576Z,20.10
2022-09-06T08:21:54.248Z,20.20
2022-09-06T08:24:48.269Z,20.20
2022-09-06T08:27:42.269Z,20.40
2022-09-06T08:30:29.454Z,20.40
2022-09-06T08:33:26.333Z,20.60
2022-09-06T08:36:14.538Z,20.80
2022-09-06T08:39:10.465Z,21.00
2022-09-06T08:42:00.762Z,21.20
2022-09-06T08:44:58.740Z,21.40
2022-09-06T08:47:46.159Z,21.60
2022-09-06T08:50:42.305Z,21.80
2022-09-06T08:53:36.298Z,21.90
2022-09-06T08:56:38.507Z,21.90
2022-09-06T08:59:32.380Z,22.00
2022-09-06T09:02:28.579Z,22.10
2022-09-06T09:05:32.369Z,22.20
2022-09-06T09:08:28.575Z,22.40
2022-09-06T09:11:26.377Z,22.50
2022-09-06T09:14:20.358Z,22.60
2022-09-06T09:17:16.488Z,22.60
2022-09-06T09:20:11.380Z,22.70
2022-09-06T09:22:58.563Z,22.90
2022-09-06T09:25:53.326Z,23.10
2022-09-06T09:29:16.396Z,23.40
2022-09-06T09:32:03.635Z,23.60
2022-09-06T09:34:58.371Z,23.80
2022-09-06T09:37:47.214Z,23.80
2022-09-06T09:40:48.391Z,23.70
2022-09-06T09:43:43.361Z,23.80
2022-09-06T09:46:35.752Z,23.90
2022-09-06T09:49:30.417Z,24.00
2022-09-06T09:52:37.391Z,24.00
2022-09-06T09:55:26.121Z,24.10
2022-09-06T09:58:40.435Z,24.00
2022-09-06T10:01:30.647Z,24.10
2022-09-06T10:04:45.210Z,24.30
2022-09-06T10:07:34.047Z,24.30
2022-09-06T10:10:32.416Z,24.10
2022-09-06T10:13:36.456Z,24.00
2022-09-06T10:16:43.387Z,24.10
2022-09-06T10:19:48.447Z,24.10
2022-09-06T10:23:10.446Z,24.20
2022-09-06T10:26:17.079Z,24.20
2022-09-06T10:29:18.442Z,24.40
2022-09-06T10:32:43.037Z,24.50
2022-09-06T10:35:41.466Z,24.70
2022-09-06T10:39:03.751Z,24.70
2022-09-06T10:42:27.487Z,24.70
2022-09-06T10:45:35.470Z,24.80
2022-09-06T10:48:59.495Z,24.70
2022-09-06T10:52:08.498Z,24.70
2022-09-06T10:55:02.205Z,24.70
2022-09-06T10:58:19.049Z,24.70
2022-09-06T11:01:21.356Z,24.80
2022-09-06T11:04:26.773Z,25.00
2022-09-06T11:07:40.588Z,25.10
2022-09-06T11:10:39.519Z,25.00
2022-09-06T11:13:28.347Z,25.10
2022-09-06T11:16:38.733Z,25.30
2022-09-06T11:19:32.227Z,25.30
2022-09-06T11:22:34.606Z,25.40
2022-09-06T11:26:06.602Z,25.30
2022-09-06T11:29:03.192Z,25.40
2022-09-06T11:32:16.194Z,25.50
2022-09-06T11:35:08.055Z,25.40
2022-09-06T11:38:31.564Z,25.30
2022-09-06T11:41:25.562Z,25.40
2022-09-06T11:44:12.665Z,25.40
2022-09-06T11:47:07.599Z,25.50
2022-09-06T11:49:54.760Z,25.20
2022-09-06T11:53:06.595Z,25.00
2022-09-06T11:55:59.902Z,24.90
2022-09-06T11:59:06.612Z,25.10
2022-09-06T12:02:00.289Z,25.20
2022-09-06T12:05:06.614Z,25.10
2022-09-06T12:08:21.594Z,25.30
2022-09-06T12:11:38.889Z,25.70
2022-09-06T12:14:34.662Z,26.00
2022-09-06T12:17:28.618Z,26.10
2022-09-06T12:20:59.635Z,25.90
2022-09-06T12:23:46.751Z,25.90
2022-09-06T12:27:00.693Z,26.00
2022-09-06T12:29:58.088Z,26.00
2022-09-06T12:32:56.642Z,26.10
2022-09-06T12:35:58.054Z,26.20
2022-09-06T12:39:03.832Z,26.10
2022-09-06T12:42:09.650Z,26.30
2022-09-06T12:44:57.358Z,26.60
2022-09-06T12:47:51.654Z,26.80
2022-09-06T12:50:39.287Z,26.80
2022-09-06T12:53:34.676Z,26.90
2022-09-06T12:56:30.727Z,26.70
2022-09-06T12:59:31.815Z,26.50
2022-09-06T13:02:29.648Z,26.30
2022-09-06T13:05:23.765Z,26.30
2022-09-06T13:08:19.136Z,26.50
2022-09-06T13:11:17.713Z,26.70
2022-09-06T13:14:19.701Z,26.90
2022-09-06T13:17:06.865Z,26.90
2022-09-06T13:20:00.710Z,27.10
2022-09-06T13:22:57.804Z,27.30
2022-09-06T13:25:50.687Z,27.20
2022-09-06T13:28:44.746Z,27.20
2022-09-06T13:31:32.382Z,27.10
2022-09-06T13:34:34.740Z,27.20
2022-09-06T13:37:22.599Z,27.30
2022-09-06T13:41:10.100Z,27.40
2022-09-06T13:44:15.598Z,27.50
2022-09-06T13:47:09.749Z,27.50
2022-09-06T13:50:03.758Z,27.40
2022-09-06T13:52:57.823Z,27.50
2022-09-06T13:55:51.773Z,27.50
2022-09-06T13:58:38.907Z,27.50
2022-09-06T14:01:32.920Z,27.50
2022-09-06T14:04:21.535Z,27.40
2022-09-06T14:07:15.785Z,27.30
2022-09-06T14:10:09.901Z,27.50
2022-09-06T14:12:56.986Z,27.60
2022-09-06T14:15:52.871Z,27.60
2022-09-06T14:18:46.858Z,27.40
2022-09-06T14:21:34.045Z,27.40
2022-09-06T14:24:27.876Z,27.50
2022-09-06T14:27:21.890Z,27.70
2022-09-06T14:30:09.791Z,27.70
2022-09-06T14:33:03.858Z,27.80
2022-09-06T14:35:50.963Z,27.50
2022-09-06T14:38:46.837Z,27.40
2022-09-06T14:41:34.048Z,27.40
2022-09-06T14:44:27.850Z,27.40
2022-09-06T14:47:14.909Z,27.40
2022-09-06T14:50:08.846Z,27.50
2022-09-06T14:53:03.074Z,27.60
2022-09-06T14:55:50.485Z,27.60
2022-09-06T14:58:45.924Z,27.70
2022-09-06T15:01:40.945Z,27.60
2022-09-06T15:04:35.912Z,27.40
2022-09-06T15:07:23.706Z,27.30
2022-09-06T15:10:17.871Z,27.10
2022-09-06T15:13:05.371Z,27.00
2022-09-06T15:16:02.978Z,27.00
2022-09-06T15:18:50.267Z,26.80
2022-09-06T15:21:43.924Z,26.50
2022-09-06T15:24:38.972Z,26.40
2022-09-06T15:27:26.170Z,26.20
2022-09-06T15:30:19.920Z,26.20
2022-09-06T15:33:13.980Z,26.20
2022-09-06T15:36:12.953Z,26.60
2022-09-06T15:39:01.595Z,26.90
2022-09-06T15:41:56.988Z,27.10
2022-09-06T15:44:44.133Z,27.10
2022-09-06T15:47:38.027Z,27.10
2022-09-06T15:50:47.679Z,26.90
2022-09-06T15:53:39.018Z,26.50
2022-09-06T15:56:26.069Z,26.30
2022-09-06T15:59:19.988Z,26.10
2022-09-06T16:02:07.358Z,25.90
2022-09-06T16:05:00.970Z,25.80
2022-09-06T16:07:55.039Z,25.80
2022-09-06T16:10:42.116Z,25.70
2022-09-06T16:13:39.999Z,25.70
2022-09-06T16:16:27.185Z,25.70
2022-09-06T16:19:21.002Z,25.70
2022-09-06T16:22:14.989Z,25.80
2022-09-06T16:25:09.034Z,25.80
2022-09-06T16:27:56.267Z,25.90
2022-09-06T16:30:57.080Z,25.90
2022-09-06T16:33:45.614Z,25.80
2022-09-06T16:36:39.044Z,25.80
2022-09-06T16:39:26.392Z,25.80
2022-09-06T16:42:20.043Z,25.80
2022-09-06T16:45:07.505Z,25.70
2022-09-06T16:48:01.075Z,25.60
2022-09-06T16:50:48.188Z,25.60
2022-09-06T16:53:42.087Z,25.40
2022-09-06T16:56:40.044Z,25.30
2022-09-06T16:59:27.174Z,25.20
2022-09-06T17:02:21.371Z,25.20
2022-09-06T17:05:09.375Z,25.10
2022-09-06T17:08:03.075Z,25.00
2022-09-06T17:10:57.131Z,24.90
2022-09-06T17:13:46.221Z,24.90
2022-09-06T17:16:58.171Z,24.80
2022-09-06T17:19:45.455Z,24.80
2022-09-06T17:22:39.086Z,24.80
2022-09-06T17:25:26.366Z,24.70
2022-09-06T17:28:20.111Z,24.70
2022-09-06T17:31:08.102Z,24.70
2022-09-06T17:34:02.125Z,24.60
2022-09-06T17:36:56.191Z,24.50
2022-09-06T17:39:43.323Z,24.50
2022-09-06T17:42:38.118Z,24.40
2022-09-06T17:45:32.273Z,24.40
2022-09-06T17:48:28.332Z,24.30
2022-09-06T17:51:22.175Z,24.30
2022-09-06T17:54:10.218Z,24.20
2022-09-06T17:57:04.214Z,24.10
2022-09-06T17:59:58.226Z,24.10
2022-09-06T18:02:45.450Z,24.00
2022-09-06T18:05:49.229Z,24.00
2022-09-06T18:08:37.744Z,24.00
2022-09-06T18:11:34.328Z,24.00
2022-09-06T18:14:21.607Z,23.90
2022-09-06T18:17:15.187Z,23.90
2022-09-06T18:20:03.239Z,23.80
2022-09-06T18:22:57.255Z,23.80
2022-09-06T18:25:44.375Z,23.70
2022-09-06T18:28:39.215Z,23.70
2022-09-06T18:31:27.634Z,23.60
2022-09-06T18:34:23.190Z,23.60
2022-09-06T18:37:10.480Z,23.60
2022-09-06T18:40:04.249Z,23.60
2022-09-06T18:42:51.450Z,23.60
2022-09-06T18:45:45.252Z,23.50
2022-09-06T18:48:39.227Z,23.50
2022-09-06T18:51:33.254Z,23.50
2022-09-06T18:54:27.266Z,23.50
2022-09-06T18:57:15.854Z,23.40
2022-09-06T19:00:10.256Z,23.30
2022-09-06T19:03:04.312Z,23.30
2022-09-06T19:05:51.412Z,23.10
2022-09-06T19:08:45.281Z,23.10
2022-09-06T19:11:39.277Z,23.00
2022-09-06T19:14:26.409Z,22.90
2022-09-06T19:17:20.282Z,22.90
2022-09-06T19:20:10.781Z,22.90
2022-09-06T19:23:04.298Z,22.80
2022-09-06T19:26:24.287Z,22.80
2022-09-06T19:29:24.296Z,22.70
2022-09-06T19:32:18.288Z,22.70
2022-09-06T19:35:12.326Z,22.60
2022-09-06T19:38:06.351Z,22.60
2022-09-06T19:41:00.331Z,22.50
2022-09-06T19:43:51.112Z,22.50
2022-09-06T19:46:46.601Z,22.50
2022-09-06T19:49:34.266Z,22.50
2022-09-06T19:52:28.309Z,22.40
2022-09-06T19:55:15.505Z,22.50
2022-09-06T19:58:14.380Z,22.50
2022-09-06T20:01:01.804Z,22.50
2022-09-06T20:03:56.363Z,22.50
2022-09-06T20:06:50.353Z,22.50
2022-09-06T20:09:37.502Z,22.60
2022-09-06T20:12:31.377Z,22.60
2022-09-06T20:15:18.494Z,22.60
2022-09-06T20:18:12.375Z,22.50
2022-09-06T20:21:06.388Z,22.60
2022-09-06T20:24:02.354Z,22.60
2022-09-06T20:26:58.375Z,22.60
2022-09-06T20:29:45.579Z,22.60
2022-09-06T20:32:40.376Z,22.60
2022-09-06T20:35:28.292Z,22.50
2022-09-06T20:38:22.397Z,22.50
2022-09-06T20:41:12.184Z,22.50
2022-09-06T20:44:06.413Z,22.50
2022-09-06T20:47:00.529Z,22.40
2022-09-06T20:49:47.658Z,22.40
2022-09-06T20:52:41.470Z,22.40
2022-09-06T20:55:30.566Z,22.30
2022-09-06T20:58:24.459Z,22.30
2022-09-06T21:01:16.914Z,22.20
2022-09-06T21:04:13.418Z,22.10
2022-09-06T21:07:07.454Z,22.10
2022-09-06T21:09:54.574Z,22.00
2022-09-06T21:12:48.449Z,21.90
2022-09-06T21:15:37.596Z,21.90
2022-09-06T21:18:32.464Z,21.80
2022-09-06T21:21:26.479Z,21.80
2022-09-06T21:24:20.477Z,21.80
2022-09-06T21:27:14.510Z,21.80
2022-09-06T21:30:01.568Z,21.80
2022-09-06T21:32:55.500Z,21.80
2022-09-06T21:35:42.541Z,21.80
2022-09-06T21:38:37.516Z,21.80
2022-09-06T21:41:41.544Z,21.70
2022-09-06T21:44:35.570Z,21.60
2022-09-06T21:47:37.505Z,21.40
2022-09-06T21:50:24.716Z,21.30
2022-09-06T21:53:18.543Z,21.20
2022-09-06T21:56:12.553Z,21.00
2022-09-06T21:59:06.530Z,20.80
2022-09-06T22:01:54.430Z,20.70
2022-09-06T22:04:48.537Z,20.60
2022-09-06T22:07:38.778Z,20.40
2022-09-06T22:10:32.581Z,20.20
2022-09-06T22:13:20.518Z,20.00
2022-09-06T22:16:14.589Z,19.80
2022-09-06T22:19:01.863Z,19.70
2022-09-06T22:21:58.563Z,19.40
2022-09-06T22:24:52.589Z,18.90
2022-09-06T22:27:46.554Z,18.30
2022-09-06T22:30:40.633Z,17.70
2022-09-06T22:33:34.788Z,17.30
2022-09-06T22:36:23.793Z,17.00
2022-09-06T22:39:17.610Z,16.90
2022-09-06T22:42:04.844Z,16.90
2022-09-06T22:44:58.632Z,16.80
2022-09-06T22:47:52.600Z,16.70
2022-09-06T22:50:40.907Z,16.70
2022-09-06T22:53:35.669Z,16.70
2022-09-06T22:56:22.984Z,16.70
2022-09-06T22:59:16.626Z,16.80
2022-09-06T23:02:04.439Z,16.70
2022-09-06T23:04:57.649Z,16.60
2022-09-06T23:07:51.616Z,16.50
2022-09-06T23:10:48.842Z,16.50
2022-09-06T23:13:36.166Z,16.50
2022-09-06T23:16:30.674Z,16.60
2022-09-06T23:19:24.683Z,16.70
2022-09-06T23:22:18.662Z,16.80
2022-09-06T23:25:13.641Z,16.90
2022-09-06T23:28:00.803Z,17.00
2022-09-06T23:31:00.723Z,16.90
2022-09-06T23:33:57.698Z,16.90
2022-09-06T23:36:45.269Z,17.00
2022-09-06T23:39:38.744Z,17.00
2022-09-06T23:42:32.712Z,16.90
2022-09-06T23:45:19.819Z,16.80
2022-09-06T23:48:13.695Z,16.80
2022-09-06T23:51:01.353Z,16.80
2022-09-06T23:53:54.688Z,16.80
2022-09-06T23:56:48.692Z,16.80
2022-09-06T23:59:42.732Z,16.80
